sensor_id;sensor_type;location;lat;lon;timestamp;temperature;humidity
55211;DHT22;41082;52.822;6.666;2023-02-01T00:00:45;6.40;99.90
55211;DHT22;41082;52.822;6.666;2023-02-01T00:03:11;6.40;99.90
55211;DHT22;41082;52.822;6.666;2023-02-01T00:05:38;6.40;99.90
55211;DHT22;41082;52.822;6.666;2023-02-01T00:08:04;6.40;99.90
55211;DHT22;41082;52.822;6.666;2023-02-01T00:10:30;6.40;99.90
55211;DHT22;41082;52.822;6.666;2023-02-01T00:12:55;6.40;99.90
55211;DHT22;41082;52.822;6.666;2023-02-01T00:15:21;6.50;99.90
55211;DHT22;41082;52.822;6.666;2023-02-01T00:17:52;6.50;99.90
55211;DHT22;41082;52.822;6.666;2023-02-01T00:20:18;6.50;99.90
55211;DHT22;41082;52.822;6.666;2023-02-01T00:22:43;6.50;99.90
55211;DHT22;41082;52.822;6.666;2023-02-01T00:25:09;6.50;99.90
55211;DHT22;41082;52.822;6.666;2023-02-01T00:27:34;6.50;99.90
55211;DHT22;41082;52.822;6.666;2023-02-01T00:30:00;6.50;99.90
55211;DHT22;41082;52.822;6.666;2023-02-01T00:32:25;6.50;99.90
55211;DHT22;41082;52.822;6.666;2023-02-01T00:34:51;6.50;99.90
55211;DHT22;41082;52.822;6.666;2023-02-01T00:37:17;6.50;99.90
55211;DHT22;41082;52.822;6.666;2023-02-01T00:39:42;6.50;99.90
55211;DHT22;41082;52.822;6.666;2023-02-01T00:42:08;6.50;99.90
55211;DHT22;41082;52.822;6.666;2023-02-01T00:44:33;6.50;99.90
55211;DHT22;41082;52.822;6.666;2023-02-01T00:47:00;6.50;99.90
55211;DHT22;41082;52.822;6.666;2023-02-01T00:49:26;6.40;99.90
55211;DHT22;41082;52.822;6.666;2023-02-01T00:51:52;6.40;99.90
55211;DHT22;41082;52.822;6.666;2023-02-01T00:54:17;6.40;99.90
55211;DHT22;41082;52.822;6.666;2023-02-01T00:56:43;6.40;99.90
55211;DHT22;41082;52.822;6.666;2023-02-01T00:59:11;6.50;99.90
55211;DHT22;41082;52.822;6.666;2023-02-01T01:01:38;6.40;99.90
55211;DHT22;41082;52.822;6.666;2023-02-01T01:04:04;6.40;99.90
55211;DHT22;41082;52.822;6.666;2023-02-01T01:06:31;6.40;99.90
55211;DHT22;41082;52.822;6.666;2023-02-01T01:08:59;6.40;99.90
55211;DHT22;41082;52.822;6.666;2023-02-01T01:11:28;6.40;99.90
55211;DHT22;41082;52.822;6.666;2023-02-01T01:13:55;6.40;99.90
55211;DHT22;41082;52.822;6.666;2023-02-01T01:16:23;6.50;99.90
55211;DHT22;41082;52.822;6.666;2023-02-01T01:18:49;6.40;99.90
55211;DHT22;41082;52.822;6.666;2023-02-01T01:21:15;6.50;99.90
55211;DHT22;41082;52.822;6.666;2023-02-01T01:23:42;6.50;99.90
55211;DHT22;41082;52.822;6.666;2023-02-01T01:26:09;6.50;99.90
55211;DHT22;41082;52.822;6.666;2023-02-01T01:28:35;6.50;99.90
55211;DHT22;41082;52.822;6.666;2023-02-01T01:31:01;6.50;99.90
55211;DHT22;41082;52.822;6.666;2023-02-01T01:33:27;6.60;99.90
55211;DHT22;41082;52.822;6.666;2023-02-01T01:35:53;6.50;99.90
55211;DHT22;41082;52.822;6.666;2023-02-01T01:38:18;6.50;99.90
55211;DHT22;41082;52.822;6.666;2023-02-01T01:40:47;6.50;99.90
55211;DHT22;41082;52.822;6.666;2023-02-01T01:43:17;6.50;99.90
55211;DHT22;41082;52.822;6.666;2023-02-01T01:45:43;6.50;99.90
55211;DHT22;41082;52.822;6.666;2023-02-01T01:48:28;6.50;99.90
55211;DHT22;41082;52.822;6.666;2023-02-01T01:51:05;6.60;99.90
55211;DHT22;41082;52.822;6.666;2023-02-01T01:53:37;6.60;99.90
55211;DHT22;41082;52.822;6.666;2023-02-01T01:56:03;6.60;99.90
55211;DHT22;41082;52.822;6.666;2023-02-01T01:58:31;6.60;99.90
55211;DHT22;41082;52.822;6.666;2023-02-01T02:00:58;6.50;99.90
55211;DHT22;41082;52.822;6.666;2023-02-01T02:03:27;6.60;99.90
55211;DHT22;41082;52.822;6.666;2023-02-01T02:05:55;6.60;99.90
55211;DHT22;41082;52.822;6.666;2023-02-01T02:08:23;6.60;99.90
55211;DHT22;41082;52.822;6.666;2023-02-01T02:10:51;6.60;99.90
55211;DHT22;41082;52.822;6.666;2023-02-01T02:13:38;6.60;99.90
55211;DHT22;41082;52.822;6.666;2023-02-01T02:19:10;6.60;99.90
55211;DHT22;41082;52.822;6.666;2023-02-01T02:30:48;6.50;99.90
55211;DHT22;41082;52.822;6.666;2023-02-01T02:36:09;6.40;99.90
55211;DHT22;41082;52.822;6.666;2023-02-01T02:47:44;6.20;99.90
55211;DHT22;41082;52.822;6.666;2023-02-01T02:50:32;6.20;99.90
55211;DHT22;41082;52.822;6.666;2023-02-01T02:53:25;6.20;99.90
55211;DHT22;41082;52.822;6.666;2023-02-01T02:56:12;6.20;99.90
55211;DHT22;41082;52.822;6.666;2023-02-01T02:58:56;6.10;99.90
55211;DHT22;41082;52.822;6.666;2023-02-01T03:01:42;6.20;99.90
55211;DHT22;41082;52.822;6.666;2023-02-01T03:04:26;6.10;99.90
55211;DHT22;41082;52.822;6.666;2023-02-01T03:06:53;6.10;99.90
55211;DHT22;41082;52.822;6.666;2023-02-01T03:09:34;6.10;99.90
55211;DHT22;41082;52.822;6.666;2023-02-01T03:12:06;6.10;99.90
55211;DHT22;41082;52.822;6.666;2023-02-01T03:14:56;6.20;99.90
55211;DHT22;41082;52.822;6.666;2023-02-01T03:17:39;6.20;99.90
55211;DHT22;41082;52.822;6.666;2023-02-01T03:20:07;6.20;99.90
55211;DHT22;41082;52.822;6.666;2023-02-01T03:22:37;6.20;99.90
55211;DHT22;41082;52.822;6.666;2023-02-01T03:25:12;6.20;99.90
55211;DHT22;41082;52.822;6.666;2023-02-01T03:27:42;6.20;99.90
55211;DHT22;41082;52.822;6.666;2023-02-01T03:32:44;6.20;99.90
55211;DHT22;41082;52.822;6.666;2023-02-01T03:38:40;6.30;99.90
55211;DHT22;41082;52.822;6.666;2023-02-01T03:41:43;6.30;99.90
55211;DHT22;41082;52.822;6.666;2023-02-01T03:44:18;6.30;99.90
55211;DHT22;41082;52.822;6.666;2023-02-01T03:49:30;6.40;99.90
55211;DHT22;41082;52.822;6.666;2023-02-01T03:51:58;6.30;99.90
55211;DHT22;41082;52.822;6.666;2023-02-01T03:54:26;6.40;99.90
55211;DHT22;41082;52.822;6.666;2023-02-01T03:56:55;6.40;99.90
55211;DHT22;41082;52.822;6.666;2023-02-01T03:59:22;6.40;99.90
55211;DHT22;41082;52.822;6.666;2023-02-01T04:01:47;6.40;99.90
55211;DHT22;41082;52.822;6.666;2023-02-01T04:04:13;6.40;99.90
55211;DHT22;41082;52.822;6.666;2023-02-01T04:06:51;6.40;99.90
55211;DHT22;41082;52.822;6.666;2023-02-01T04:09:17;6.40;99.90
55211;DHT22;41082;52.822;6.666;2023-02-01T04:11:43;6.40;99.90
55211;DHT22;41082;52.822;6.666;2023-02-01T04:14:09;6.40;99.90
55211;DHT22;41082;52.822;6.666;2023-02-01T04:16:35;6.40;99.90
55211;DHT22;41082;52.822;6.666;2023-02-01T04:19:00;6.40;99.90
55211;DHT22;41082;52.822;6.666;2023-02-01T04:21:26;6.50;99.90
55211;DHT22;41082;52.822;6.666;2023-02-01T04:23:53;6.40;99.90
55211;DHT22;41082;52.822;6.666;2023-02-01T04:26:19;6.40;99.90
55211;DHT22;41082;52.822;6.666;2023-02-01T04:28:45;6.40;99.90
55211;DHT22;41082;52.822;6.666;2023-02-01T04:31:14;6.30;99.90
55211;DHT22;41082;52.822;6.666;2023-02-01T04:33:39;6.40;99.90
55211;DHT22;41082;52.822;6.666;2023-02-01T04:36:05;6.40;99.90
55211;DHT22;41082;52.822;6.666;2023-02-01T04:38:30;6.40;99.90
55211;DHT22;41082;52.822;6.666;2023-02-01T04:40:58;6.40;99.90
55211;DHT22;41082;52.822;6.666;2023-02-01T04:43:24;6.40;99.90
55211;DHT22;41082;52.822;6.666;2023-02-01T04:45:50;6.40;99.90
55211;DHT22;41082;52.822;6.666;2023-02-01T04:48:18;6.40;99.90
55211;DHT22;41082;52.822;6.666;2023-02-01T04:50:45;6.40;99.90
55211;DHT22;41082;52.822;6.666;2023-02-01T04:53:13;6.40;99.90
55211;DHT22;41082;52.822;6.666;2023-02-01T04:55:40;6.40;99.90
55211;DHT22;41082;52.822;6.666;2023-02-01T04:58:05;6.40;99.90
55211;DHT22;41082;52.822;6.666;2023-02-01T05:00:31;6.40;99.90
55211;DHT22;41082;52.822;6.666;2023-02-01T05:02:56;6.50;99.90
55211;DHT22;41082;52.822;6.666;2023-02-01T05:05:22;6.50;99.90
55211;DHT22;41082;52.822;6.666;2023-02-01T05:07:47;6.50;99.90
55211;DHT22;41082;52.822;6.666;2023-02-01T05:10:13;6.50;99.90
55211;DHT22;41082;52.822;6.666;2023-02-01T05:12:39;6.50;99.90
55211;DHT22;41082;52.822;6.666;2023-02-01T05:15:23;6.50;99.90
55211;DHT22;41082;52.822;6.666;2023-02-01T05:17:48;6.50;99.90
55211;DHT22;41082;52.822;6.666;2023-02-01T05:20:14;6.50;99.90
55211;DHT22;41082;52.822;6.666;2023-02-01T05:22:41;6.50;99.90
55211;DHT22;41082;52.822;6.666;2023-02-01T05:25:07;6.50;99.90
55211;DHT22;41082;52.822;6.666;2023-02-01T05:27:33;6.50;99.90
55211;DHT22;41082;52.822;6.666;2023-02-01T05:29:58;6.50;99.90
55211;DHT22;41082;52.822;6.666;2023-02-01T05:32:24;6.40;99.90
55211;DHT22;41082;52.822;6.666;2023-02-01T05:34:49;6.50;99.90
55211;DHT22;41082;52.822;6.666;2023-02-01T05:37:15;6.60;99.90
55211;DHT22;41082;52.822;6.666;2023-02-01T05:39:40;6.60;99.90
55211;DHT22;41082;52.822;6.666;2023-02-01T05:42:06;6.60;99.90
55211;DHT22;41082;52.822;6.666;2023-02-01T05:44:32;6.60;99.90
55211;DHT22;41082;52.822;6.666;2023-02-01T05:46:57;6.60;99.90
55211;DHT22;41082;52.822;6.666;2023-02-01T05:49:23;6.60;99.90
55211;DHT22;41082;52.822;6.666;2023-02-01T05:51:48;6.60;99.90
55211;DHT22;41082;52.822;6.666;2023-02-01T05:54:14;6.60;99.90
55211;DHT22;41082;52.822;6.666;2023-02-01T05:56:39;6.60;99.90
55211;DHT22;41082;52.822;6.666;2023-02-01T05:59:06;6.70;99.90
55211;DHT22;41082;52.822;6.666;2023-02-01T06:01:31;6.70;99.90
55211;DHT22;41082;52.822;6.666;2023-02-01T06:03:57;6.70;99.90
55211;DHT22;41082;52.822;6.666;2023-02-01T06:06:23;6.60;99.90
55211;DHT22;41082;52.822;6.666;2023-02-01T06:08:48;6.70;99.90
55211;DHT22;41082;52.822;6.666;2023-02-01T06:11:14;6.70;99.90
55211;DHT22;41082;52.822;6.666;2023-02-01T06:13:39;6.70;99.90
55211;DHT22;41082;52.822;6.666;2023-02-01T06:16:05;6.70;99.90
55211;DHT22;41082;52.822;6.666;2023-02-01T06:18:34;6.70;99.90
55211;DHT22;41082;52.822;6.666;2023-02-01T06:21:00;6.80;99.90
55211;DHT22;41082;52.822;6.666;2023-02-01T06:23:27;6.80;99.90
55211;DHT22;41082;52.822;6.666;2023-02-01T06:26:05;6.80;99.90
55211;DHT22;41082;52.822;6.666;2023-02-01T06:28:32;6.90;99.90
55211;DHT22;41082;52.822;6.666;2023-02-01T06:30:57;6.90;99.90
55211;DHT22;41082;52.822;6.666;2023-02-01T06:33:24;6.80;99.90
55211;DHT22;41082;52.822;6.666;2023-02-01T06:35:57;6.90;99.90
55211;DHT22;41082;52.822;6.666;2023-02-01T06:38:24;6.80;99.90
55211;DHT22;41082;52.822;6.666;2023-02-01T06:40:54;6.80;99.90
55211;DHT22;41082;52.822;6.666;2023-02-01T06:43:21;6.90;99.90
55211;DHT22;41082;52.822;6.666;2023-02-01T06:45:46;6.80;99.90
55211;DHT22;41082;52.822;6.666;2023-02-01T06:48:12;6.90;99.90
55211;DHT22;41082;52.822;6.666;2023-02-01T06:50:38;6.80;99.90
55211;DHT22;41082;52.822;6.666;2023-02-01T06:53:03;6.80;99.90
55211;DHT22;41082;52.822;6.666;2023-02-01T06:55:29;6.90;99.90
55211;DHT22;41082;52.822;6.666;2023-02-01T06:57:55;6.90;99.90
55211;DHT22;41082;52.822;6.666;2023-02-01T07:00:24;6.90;99.90
55211;DHT22;41082;52.822;6.666;2023-02-01T07:02:50;6.90;99.90
55211;DHT22;41082;52.822;6.666;2023-02-01T07:05:16;6.80;99.90
55211;DHT22;41082;52.822;6.666;2023-02-01T07:07:42;6.80;99.90
55211;DHT22;41082;52.822;6.666;2023-02-01T07:10:08;6.80;99.90
55211;DHT22;41082;52.822;6.666;2023-02-01T07:12:34;6.80;99.90
55211;DHT22;41082;52.822;6.666;2023-02-01T07:15:00;6.90;99.90
55211;DHT22;41082;52.822;6.666;2023-02-01T07:17:27;6.80;99.90
55211;DHT22;41082;52.822;6.666;2023-02-01T07:19:55;6.90;99.90
55211;DHT22;41082;52.822;6.666;2023-02-01T07:22:20;6.80;99.90
55211;DHT22;41082;52.822;6.666;2023-02-01T07:24:46;6.80;99.90
55211;DHT22;41082;52.822;6.666;2023-02-01T07:27:11;6.90;99.90
55211;DHT22;41082;52.822;6.666;2023-02-01T07:29:37;6.90;99.90
55211;DHT22;41082;52.822;6.666;2023-02-01T07:32:02;6.90;99.90
55211;DHT22;41082;52.822;6.666;2023-02-01T07:34:28;7.00;99.90
55211;DHT22;41082;52.822;6.666;2023-02-01T07:36:55;7.00;99.90
55211;DHT22;41082;52.822;6.666;2023-02-01T07:39:21;7.00;99.90
55211;DHT22;41082;52.822;6.666;2023-02-01T07:41:46;6.90;99.90
55211;DHT22;41082;52.822;6.666;2023-02-01T07:44:12;6.90;99.90
55211;DHT22;41082;52.822;6.666;2023-02-01T07:46:38;6.90;99.90
55211;DHT22;41082;52.822;6.666;2023-02-01T07:49:04;6.90;99.90
55211;DHT22;41082;52.822;6.666;2023-02-01T07:51:30;7.00;99.90
55211;DHT22;41082;52.822;6.666;2023-02-01T07:53:56;7.00;99.90
55211;DHT22;41082;52.822;6.666;2023-02-01T07:56:22;7.00;99.90
55211;DHT22;41082;52.822;6.666;2023-02-01T07:58:50;7.00;99.90
55211;DHT22;41082;52.822;6.666;2023-02-01T08:01:21;7.00;99.90
55211;DHT22;41082;52.822;6.666;2023-02-01T08:04:00;7.00;99.90
55211;DHT22;41082;52.822;6.666;2023-02-01T08:06:27;6.90;99.90
55211;DHT22;41082;52.822;6.666;2023-02-01T08:08:53;6.90;99.90
55211;DHT22;41082;52.822;6.666;2023-02-01T08:11:21;6.90;99.90
55211;DHT22;41082;52.822;6.666;2023-02-01T08:13:47;6.80;99.90
55211;DHT22;41082;52.822;6.666;2023-02-01T08:16:15;6.80;99.90
55211;DHT22;41082;52.822;6.666;2023-02-01T08:18:41;6.80;99.90
55211;DHT22;41082;52.822;6.666;2023-02-01T08:21:19;6.80;99.90
55211;DHT22;41082;52.822;6.666;2023-02-01T08:23:45;6.80;99.90
55211;DHT22;41082;52.822;6.666;2023-02-01T08:26:18;6.80;99.90
55211;DHT22;41082;52.822;6.666;2023-02-01T08:28:47;6.90;99.90
55211;DHT22;41082;52.822;6.666;2023-02-01T08:31:16;6.80;99.90
55211;DHT22;41082;52.822;6.666;2023-02-01T08:33:43;6.90;99.90
55211;DHT22;41082;52.822;6.666;2023-02-01T08:36:10;6.90;99.90
55211;DHT22;41082;52.822;6.666;2023-02-01T08:38:38;6.90;99.90
55211;DHT22;41082;52.822;6.666;2023-02-01T08:41:12;6.90;99.90
55211;DHT22;41082;52.822;6.666;2023-02-01T08:43:39;6.90;99.90
55211;DHT22;41082;52.822;6.666;2023-02-01T08:46:05;6.90;99.90
55211;DHT22;41082;52.822;6.666;2023-02-01T08:48:32;6.90;99.90
55211;DHT22;41082;52.822;6.666;2023-02-01T08:51:00;7.00;99.90
55211;DHT22;41082;52.822;6.666;2023-02-01T08:53:26;7.00;99.90
55211;DHT22;41082;52.822;6.666;2023-02-01T08:55:51;7.00;99.90
55211;DHT22;41082;52.822;6.666;2023-02-01T08:58:17;7.00;99.90
55211;DHT22;41082;52.822;6.666;2023-02-01T09:00:43;7.00;99.90
55211;DHT22;41082;52.822;6.666;2023-02-01T09:03:10;7.10;99.90
55211;DHT22;41082;52.822;6.666;2023-02-01T09:05:37;7.10;99.90
55211;DHT22;41082;52.822;6.666;2023-02-01T09:08:03;7.10;99.90
55211;DHT22;41082;52.822;6.666;2023-02-01T09:10:28;7.10;99.90
55211;DHT22;41082;52.822;6.666;2023-02-01T09:12:54;7.10;99.90
55211;DHT22;41082;52.822;6.666;2023-02-01T09:15:19;7.10;99.90
55211;DHT22;41082;52.822;6.666;2023-02-01T09:17:45;7.20;99.90
55211;DHT22;41082;52.822;6.666;2023-02-01T09:20:11;7.20;99.90
55211;DHT22;41082;52.822;6.666;2023-02-01T09:22:36;7.20;99.90
55211;DHT22;41082;52.822;6.666;2023-02-01T09:25:02;7.20;99.90
55211;DHT22;41082;52.822;6.666;2023-02-01T09:27:28;7.20;99.90
55211;DHT22;41082;52.822;6.666;2023-02-01T09:29:53;7.20;99.90
55211;DHT22;41082;52.822;6.666;2023-02-01T09:32:23;7.20;99.90
55211;DHT22;41082;52.822;6.666;2023-02-01T09:34:50;7.20;99.90
55211;DHT22;41082;52.822;6.666;2023-02-01T09:37:15;7.20;99.90
55211;DHT22;41082;52.822;6.666;2023-02-01T09:39:41;7.20;99.90
55211;DHT22;41082;52.822;6.666;2023-02-01T09:47:55;7.20;99.90
55211;DHT22;41082;52.822;6.666;2023-02-01T09:50:34;7.20;99.90
55211;DHT22;41082;52.822;6.666;2023-02-01T09:53:28;7.20;99.90
55211;DHT22;41082;52.822;6.666;2023-02-01T09:56:41;7.20;99.90
55211;DHT22;41082;52.822;6.666;2023-02-01T09:58:45;7.20;99.90
55211;DHT22;41082;52.822;6.666;2023-02-01T10:01:18;7.20;99.90
55211;DHT22;41082;52.822;6.666;2023-02-01T10:03:45;7.10;99.90
55211;DHT22;41082;52.822;6.666;2023-02-01T10:11:32;7.10;99.90
55211;DHT22;41082;52.822;6.666;2023-02-01T10:20:22;7.00;99.90
55211;DHT22;41082;52.822;6.666;2023-02-01T10:23:11;6.90;99.90
55211;DHT22;41082;52.822;6.666;2023-02-01T10:25:56;6.90;99.90
55211;DHT22;41082;52.822;6.666;2023-02-01T10:28:25;6.80;99.90
55211;DHT22;41082;52.822;6.666;2023-02-01T10:30:56;6.80;99.90
55211;DHT22;41082;52.822;6.666;2023-02-01T10:33:25;6.80;99.90
55211;DHT22;41082;52.822;6.666;2023-02-01T10:36:00;6.80;99.90
55211;DHT22;41082;52.822;6.666;2023-02-01T10:38:30;6.80;99.90
55211;DHT22;41082;52.822;6.666;2023-02-01T10:41:01;6.80;99.90
55211;DHT22;41082;52.822;6.666;2023-02-01T10:43:28;6.80;99.90
55211;DHT22;41082;52.822;6.666;2023-02-01T10:45:53;6.80;99.90
55211;DHT22;41082;52.822;6.666;2023-02-01T10:48:19;6.80;99.90
55211;DHT22;41082;52.822;6.666;2023-02-01T10:50:58;6.80;99.90
55211;DHT22;41082;52.822;6.666;2023-02-01T10:53:44;6.70;99.90
55211;DHT22;41082;52.822;6.666;2023-02-01T10:56:12;6.80;99.90
55211;DHT22;41082;52.822;6.666;2023-02-01T10:58:45;6.70;99.90
55211;DHT22;41082;52.822;6.666;2023-02-01T11:01:20;6.70;99.90
55211;DHT22;41082;52.822;6.666;2023-02-01T11:03:57;6.70;99.90
55211;DHT22;41082;52.822;6.666;2023-02-01T11:06:37;6.70;99.90
55211;DHT22;41082;52.822;6.666;2023-02-01T11:16:59;6.80;99.90
55211;DHT22;41082;52.822;6.666;2023-02-01T11:19:26;6.80;99.90
55211;DHT22;41082;52.822;6.666;2023-02-01T11:21:58;6.80;99.90
55211;DHT22;41082;52.822;6.666;2023-02-01T11:24:29;6.90;99.90
55211;DHT22;41082;52.822;6.666;2023-02-01T11:26:56;6.90;99.90
55211;DHT22;41082;52.822;6.666;2023-02-01T11:29:23;7.00;99.90
55211;DHT22;41082;52.822;6.666;2023-02-01T11:31:59;6.90;99.90
55211;DHT22;41082;52.822;6.666;2023-02-01T11:34:31;7.00;99.90
55211;DHT22;41082;52.822;6.666;2023-02-01T11:37:00;6.90;99.90
55211;DHT22;41082;52.822;6.666;2023-02-01T11:39:33;7.00;99.90
55211;DHT22;41082;52.822;6.666;2023-02-01T11:42:01;7.00;99.90
55211;DHT22;41082;52.822;6.666;2023-02-01T11:44:40;7.00;99.90
55211;DHT22;41082;52.822;6.666;2023-02-01T11:47:26;6.90;99.90
55211;DHT22;41082;52.822;6.666;2023-02-01T11:49:58;7.00;99.90
55211;DHT22;41082;52.822;6.666;2023-02-01T12:01:50;6.90;99.90
55211;DHT22;41082;52.822;6.666;2023-02-01T12:04:51;7.00;99.90
55211;DHT22;41082;52.822;6.666;2023-02-01T12:16:00;7.10;99.90
55211;DHT22;41082;52.822;6.666;2023-02-01T12:18:32;7.00;99.90
55211;DHT22;41082;52.822;6.666;2023-02-01T12:21:17;7.00;99.90
55211;DHT22;41082;52.822;6.666;2023-02-01T12:24:08;7.00;99.90
55211;DHT22;41082;52.822;6.666;2023-02-01T12:31:57;7.00;99.90
55211;DHT22;41082;52.822;6.666;2023-02-01T12:37:38;7.20;99.90
55211;DHT22;41082;52.822;6.666;2023-02-01T12:40:56;7.20;99.90
55211;DHT22;41082;52.822;6.666;2023-02-01T12:43:55;7.30;99.90
55211;DHT22;41082;52.822;6.666;2023-02-01T12:46:33;7.30;99.90
55211;DHT22;41082;52.822;6.666;2023-02-01T12:51:38;7.50;99.90
55211;DHT22;41082;52.822;6.666;2023-02-01T12:57:18;7.60;99.90
55211;DHT22;41082;52.822;6.666;2023-02-01T13:00:06;7.70;99.90
55211;DHT22;41082;52.822;6.666;2023-02-01T13:05:21;7.80;99.90
55211;DHT22;41082;52.822;6.666;2023-02-01T13:08:02;8.00;99.90
55211;DHT22;41082;52.822;6.666;2023-02-01T13:10:41;8.00;99.90
55211;DHT22;41082;52.822;6.666;2023-02-01T13:16:16;8.10;99.90
55211;DHT22;41082;52.822;6.666;2023-02-01T13:18:46;8.10;99.90
55211;DHT22;41082;52.822;6.666;2023-02-01T13:21:24;8.10;99.90
55211;DHT22;41082;52.822;6.666;2023-02-01T13:23:52;8.00;99.90
55211;DHT22;41082;52.822;6.666;2023-02-01T13:26:17;8.00;99.90
55211;DHT22;41082;52.822;6.666;2023-02-01T13:28:53;7.90;99.90
55211;DHT22;41082;52.822;6.666;2023-02-01T13:37:45;7.90;99.90
55211;DHT22;41082;52.822;6.666;2023-02-01T13:43:18;7.80;99.90
55211;DHT22;41082;52.822;6.666;2023-02-01T13:45:48;7.90;99.90
55211;DHT22;41082;52.822;6.666;2023-02-01T13:48:21;7.90;99.90
55211;DHT22;41082;52.822;6.666;2023-02-01T13:50:52;7.80;99.90
55211;DHT22;41082;52.822;6.666;2023-02-01T13:53:43;7.80;99.90
55211;DHT22;41082;52.822;6.666;2023-02-01T13:56:18;8.00;99.90
55211;DHT22;41082;52.822;6.666;2023-02-01T13:58:46;7.90;99.90
55211;DHT22;41082;52.822;6.666;2023-02-01T14:03:58;8.00;99.90
55211;DHT22;41082;52.822;6.666;2023-02-01T14:11:55;8.10;99.90
55211;DHT22;41082;52.822;6.666;2023-02-01T14:21:51;8.10;99.90
55211;DHT22;41082;52.822;6.666;2023-02-01T14:26:55;8.20;99.90
55211;DHT22;41082;52.822;6.666;2023-02-01T14:29:26;8.20;99.90
55211;DHT22;41082;52.822;6.666;2023-02-01T14:42:19;8.10;99.90
55211;DHT22;41082;52.822;6.666;2023-02-01T14:44:47;8.10;99.90
55211;DHT22;41082;52.822;6.666;2023-02-01T14:52:47;8.10;99.90
55211;DHT22;41082;52.822;6.666;2023-02-01T14:55:31;8.20;99.90
55211;DHT22;41082;52.822;6.666;2023-02-01T14:58:02;8.20;99.90
55211;DHT22;41082;52.822;6.666;2023-02-01T15:00:31;8.20;99.90
55211;DHT22;41082;52.822;6.666;2023-02-01T15:03:23;8.20;99.90
55211;DHT22;41082;52.822;6.666;2023-02-01T15:05:55;8.20;99.90
55211;DHT22;41082;52.822;6.666;2023-02-01T15:08:30;8.20;99.90
55211;DHT22;41082;52.822;6.666;2023-02-01T15:10:58;8.20;99.90
55211;DHT22;41082;52.822;6.666;2023-02-01T15:13:27;8.20;99.90
55211;DHT22;41082;52.822;6.666;2023-02-01T15:16:13;8.30;99.90
55211;DHT22;41082;52.822;6.666;2023-02-01T15:18:39;8.30;99.90
55211;DHT22;41082;52.822;6.666;2023-02-01T15:21:06;8.20;99.90
55211;DHT22;41082;52.822;6.666;2023-02-01T15:23:32;8.20;99.90
55211;DHT22;41082;52.822;6.666;2023-02-01T15:25:58;8.20;99.90
55211;DHT22;41082;52.822;6.666;2023-02-01T15:28:25;8.10;99.90
55211;DHT22;41082;52.822;6.666;2023-02-01T15:31:03;8.10;99.90
55211;DHT22;41082;52.822;6.666;2023-02-01T15:33:30;8.10;99.90
55211;DHT22;41082;52.822;6.666;2023-02-01T15:36:09;8.10;99.90
55211;DHT22;41082;52.822;6.666;2023-02-01T15:38:41;8.20;99.90
55211;DHT22;41082;52.822;6.666;2023-02-01T15:41:15;8.20;99.90
55211;DHT22;41082;52.822;6.666;2023-02-01T15:46:44;8.10;99.90
55211;DHT22;41082;52.822;6.666;2023-02-01T15:49:20;8.20;99.90
55211;DHT22;41082;52.822;6.666;2023-02-01T15:51:48;8.20;99.90
55211;DHT22;41082;52.822;6.666;2023-02-01T15:54:26;8.10;99.90
55211;DHT22;41082;52.822;6.666;2023-02-01T15:56:54;8.10;99.90
55211;DHT22;41082;52.822;6.666;2023-02-01T15:59:29;8.10;99.90
55211;DHT22;41082;52.822;6.666;2023-02-01T16:01:56;8.20;99.90
55211;DHT22;41082;52.822;6.666;2023-02-01T16:04:24;8.20;99.90
55211;DHT22;41082;52.822;6.666;2023-02-01T16:06:55;8.20;99.90
55211;DHT22;41082;52.822;6.666;2023-02-01T16:09:24;8.30;99.90
55211;DHT22;41082;52.822;6.666;2023-02-01T16:11:58;8.10;99.90
55211;DHT22;41082;52.822;6.666;2023-02-01T16:14:25;8.10;99.90
55211;DHT22;41082;52.822;6.666;2023-02-01T16:16:52;8.10;99.90
55211;DHT22;41082;52.822;6.666;2023-02-01T16:19:18;8.00;99.90
55211;DHT22;41082;52.822;6.666;2023-02-01T16:21:45;8.10;99.90
55211;DHT22;41082;52.822;6.666;2023-02-01T16:24:11;8.00;99.90
55211;DHT22;41082;52.822;6.666;2023-02-01T16:26:37;8.10;99.90
55211;DHT22;41082;52.822;6.666;2023-02-01T16:29:04;8.10;99.90
55211;DHT22;41082;52.822;6.666;2023-02-01T16:31:34;8.10;99.90
55211;DHT22;41082;52.822;6.666;2023-02-01T16:34:01;8.00;99.90
55211;DHT22;41082;52.822;6.666;2023-02-01T16:36:27;8.00;99.90
55211;DHT22;41082;52.822;6.666;2023-02-01T16:38:53;8.00;99.90
55211;DHT22;41082;52.822;6.666;2023-02-01T16:41:21;8.00;99.90
55211;DHT22;41082;52.822;6.666;2023-02-01T16:43:50;8.00;99.90
55211;DHT22;41082;52.822;6.666;2023-02-01T16:46:18;7.90;99.90
55211;DHT22;41082;52.822;6.666;2023-02-01T16:48:59;7.90;99.90
55211;DHT22;41082;52.822;6.666;2023-02-01T16:51:28;7.80;99.90
55211;DHT22;41082;52.822;6.666;2023-02-01T16:53:56;7.70;99.90
55211;DHT22;41082;52.822;6.666;2023-02-01T16:56:33;7.70;99.90
55211;DHT22;41082;52.822;6.666;2023-02-01T16:58:59;7.70;99.90
55211;DHT22;41082;52.822;6.666;2023-02-01T17:01:25;7.60;99.90
55211;DHT22;41082;52.822;6.666;2023-02-01T17:03:51;7.60;99.90
55211;DHT22;41082;52.822;6.666;2023-02-01T17:06:20;7.50;99.90
55211;DHT22;41082;52.822;6.666;2023-02-01T17:08:54;7.50;99.90
55211;DHT22;41082;52.822;6.666;2023-02-01T17:11:20;7.50;99.90
55211;DHT22;41082;52.822;6.666;2023-02-01T17:13:46;7.40;99.90
55211;DHT22;41082;52.822;6.666;2023-02-01T17:18:48;7.40;99.90
55211;DHT22;41082;52.822;6.666;2023-02-01T17:21:15;7.30;99.90
55211;DHT22;41082;52.822;6.666;2023-02-01T17:23:41;7.30;99.90
55211;DHT22;41082;52.822;6.666;2023-02-01T17:26:09;7.30;99.90
55211;DHT22;41082;52.822;6.666;2023-02-01T17:28:35;7.40;99.90
55211;DHT22;41082;52.822;6.666;2023-02-01T17:31:00;7.30;99.90
55211;DHT22;41082;52.822;6.666;2023-02-01T17:33:30;7.30;99.90
55211;DHT22;41082;52.822;6.666;2023-02-01T17:35:56;7.30;99.90
55211;DHT22;41082;52.822;6.666;2023-02-01T17:38:23;7.30;99.90
55211;DHT22;41082;52.822;6.666;2023-02-01T17:40:49;7.30;99.90
55211;DHT22;41082;52.822;6.666;2023-02-01T17:43:17;7.20;99.90
55211;DHT22;41082;52.822;6.666;2023-02-01T17:45:49;7.20;99.90
55211;DHT22;41082;52.822;6.666;2023-02-01T17:48:20;7.10;99.90
55211;DHT22;41082;52.822;6.666;2023-02-01T17:50:48;7.10;99.90
55211;DHT22;41082;52.822;6.666;2023-02-01T17:53:23;7.10;99.90
55211;DHT22;41082;52.822;6.666;2023-02-01T17:55:49;7.00;99.90
55211;DHT22;41082;52.822;6.666;2023-02-01T17:58:16;7.10;99.90
55211;DHT22;41082;52.822;6.666;2023-02-01T18:00:43;7.00;99.90
55211;DHT22;41082;52.822;6.666;2023-02-01T18:03:22;7.00;99.90
55211;DHT22;41082;52.822;6.666;2023-02-01T18:05:49;7.00;99.90
55211;DHT22;41082;52.822;6.666;2023-02-01T18:08:17;7.00;99.90
55211;DHT22;41082;52.822;6.666;2023-02-01T18:10:43;7.00;99.90
55211;DHT22;41082;52.822;6.666;2023-02-01T18:13:10;6.90;99.90
55211;DHT22;41082;52.822;6.666;2023-02-01T18:15:37;6.90;99.90
55211;DHT22;41082;52.822;6.666;2023-02-01T18:18:04;6.90;99.90
55211;DHT22;41082;52.822;6.666;2023-02-01T18:20:30;6.90;99.90
55211;DHT22;41082;52.822;6.666;2023-02-01T18:22:56;6.80;99.90
55211;DHT22;41082;52.822;6.666;2023-02-01T18:25:23;6.80;99.90